Terminal Aerodrome Forecast
Issued by NWS Knoxville/Tri Cities, TN

Home | Current Version | Previous Version | Text Only | Print | Product List | Glossary On
Versions: 1 2 3 4 5 6 7 8 9 10 11 12 13 14 15 16 17 18 19 20 21 22 23 24 25 26 27 28 29 30 31
000
FTUS44 KMRX 261122
TAFCHA
TAF
KCHA 261122Z 2612/2712 33005KT P6SM BKN100
     FM261400 26006KT P6SM SCT100
     FM262000 20006KT P6SM BKN120
     FM270200 18005KT 6SM -RA OVC050
     FM270800 29010KT P6SM BKN025=

USA.gov is the U.S. government's official web portal to all federal, state and local government web resources and services.